Nabq, Egypt
Current Conditions -  °F | °C
As of 1:00 AM on Friday 19 Dec 2014 (Local Time) from HESH Reporting Station
Clear Clear  
Wind Chill: 64°   Ceiling: Unl
Heat Index: 64°   Visibility: 6mi
Dew Point: 52°   Wind: 5mph
Humidity: 64%   Direction: 310°NW
Pressure: 30"   Gusts: NA
Location:  28.07°N, 34.42°E
Report Text: HESH 182300Z 31004KT CAVOK 18/11 Q1016 NOSIG
Loading
Personal Weather Stations






























Interactive Weather Map New forecast layout! Learn more

10-Day Weather Forecast

Advertisements
Track Severe Weather on mobile